Time;durP1;ratioP1;P1;durP2;ratioP2;P2;SDS_P1;SDS_P2;PMS_P1;PMS_P2;Temp;Humidity;BMP_temperature;BMP_pressure;BME280_temperature;BME280_humidity;BME280_pressure;Samples;Min_cycle;Max_cycle;Signal;HPM_P1;HPM_P2
2022/02/23 00:00:27;;;;;;;;;;;;;;;18.36;55.50;100891.16;2057917;28;20265;-50
2022/02/23 00:01:27;;;;;;;;;;;;;;;18.36;55.46;100885.69;2050543;28;19914;-47
2022/02/23 00:02:28;;;;;;;;;;;;;;;18.38;55.46;100888.31;2050593;28;20940;-54
2022/02/23 00:03:28;;;;;;;;;;;;;;;18.36;55.44;100882.97;2059610;28;20416;-49
2022/02/23 00:04:28;;;;;;;;;;;;;;;18.37;55.30;100882.00;2057763;28;19953;-48
2022/02/23 00:05:31;;;;;;;;;;;;;;;18.38;55.56;100883.72;2057468;28;20266;-50
2022/02/23 00:06:31;;;;;;;;;;;;;;;18.37;55.34;100883.84;2062610;28;19953;-48
2022/02/23 00:07:31;;;;;;;;;;;;;;;18.36;55.44;100884.84;2068990;28;19922;-48
2022/02/23 00:08:32;;;;;;;;;;;;;;;18.35;55.32;100883.97;2055776;28;20527;-49
2022/02/23 00:09:32;;;;;;;;;;;;;;;18.35;55.31;100878.53;2059380;28;19928;-51
2022/02/23 00:10:33;;;;;;;;;;;;;;;18.36;55.25;100879.38;2058814;28;20327;-48
2022/02/23 00:11:34;;;;;;;;;;;;;;;18.35;55.45;100874.94;2057605;28;20065;-50
2022/02/23 00:12:34;;;;;;;;;;;;;;;18.34;55.38;100874.03;2046704;28;20059;-50
2022/02/23 00:13:37;;;;;;;;;;;;;;;18.34;55.23;100870.44;2049966;28;19925;-46
2022/02/23 00:14:37;;;;;;;;;;;;;;;18.36;55.37;100871.19;2048766;28;19921;-47
2022/02/23 00:15:37;;;;;;;;;;;;;;;18.37;55.35;100875.66;2046907;28;19922;-48
2022/02/23 00:16:38;;;;;;;;;;;;;;;18.39;55.24;100865.47;2058964;28;19909;-47
2022/02/23 00:17:38;;;;;;;;;;;;;;;18.39;55.19;100862.75;2058809;28;20305;-47
2022/02/23 00:18:39;;;;;;;;;;;;;;;18.41;55.16;100864.34;2053565;28;21027;-48
2022/02/23 00:19:39;;;;;;;;;;;;;;;18.43;54.97;100865.09;2059353;28;19925;-47
2022/02/23 00:20:39;;;;;;;;;;;;;;;18.46;54.96;100872.16;2052545;28;19925;-47
2022/02/23 00:21:40;;;;;;;;;;;;;;;18.47;55.05;100864.84;2055578;28;19997;-47
2022/02/23 00:22:41;;;;;;;;;;;;;;;18.48;54.92;100867.44;2059905;28;19920;-47
2022/02/23 00:23:41;;;;;;;;;;;;;;;18.49;54.98;100862.84;2049290;28;19914;-47
2022/02/23 00:24:41;;;;;;;;;;;;;;;18.52;54.74;100857.13;2049967;28;20292;-47
2022/02/23 00:25:42;;;;;;;;;;;;;;;18.53;54.86;100858.88;2057836;28;19917;-47
2022/02/23 00:26:42;;;;;;;;;;;;;;;18.54;54.70;100860.59;2057642;28;19967;-48
2022/02/23 00:27:43;;;;;;;;;;;;;;;18.55;54.87;100852.28;2058333;28;20387;-48
2022/02/23 00:28:43;;;;;;;;;;;;;;;18.55;54.93;100845.97;2057404;28;19928;-50
2022/02/23 00:29:43;;;;;;;;;;;;;;;18.57;54.66;100849.41;2058366;28;20711;-49
2022/02/23 00:30:44;;;;;;;;;;;;;;;18.58;54.81;100845.72;2056012;28;20240;-48
2022/02/23 00:31:45;;;;;;;;;;;;;;;18.58;54.65;100851.16;2058613;28;19924;-50
2022/02/23 00:32:45;;;;;;;;;;;;;;;18.58;54.58;100854.75;2055384;28;20005;-47
2022/02/23 00:33:45;;;;;;;;;;;;;;;18.59;54.61;100855.63;2057764;28;20272;-47
2022/02/23 00:34:47;;;;;;;;;;;;;;;18.59;54.72;100858.34;2057675;28;19925;-46
2022/02/23 00:35:47;;;;;;;;;;;;;;;18.59;54.47;100852.88;2057267;28;19925;-50
2022/02/23 00:36:47;;;;;;;;;;;;;;;18.61;54.54;100856.38;2058403;28;20344;-50
2022/02/23 00:37:48;;;;;;;;;;;;;;;18.60;54.72;100855.50;2053313;28;20029;-48
2022/02/23 00:38:48;;;;;;;;;;;;;;;18.61;54.60;100867.28;2057562;28;19922;-47
2022/02/23 00:39:48;;;;;;;;;;;;;;;18.61;54.59;100859.09;2059189;28;19944;-47
2022/02/23 00:40:49;;;;;;;;;;;;;;;18.62;54.54;100858.13;2060141;28;19926;-46
2022/02/23 00:41:50;;;;;;;;;;;;;;;18.62;54.58;100871.78;2060541;28;19952;-47
2022/02/23 00:42:53;;;;;;;;;;;;;;;18.63;54.63;100866.16;2060326;28;19921;-47
2022/02/23 00:43:54;;;;;;;;;;;;;;;18.62;54.46;100861.72;2058036;28;19933;-48
2022/02/23 00:44:54;;;;;;;;;;;;;;;18.62;54.53;100872.63;2060343;28;20254;-49
2022/02/23 00:45:54;;;;;;;;;;;;;;;18.62;54.54;100863.56;2058104;28;19921;-47
2022/02/23 00:46:55;;;;;;;;;;;;;;;18.62;54.53;100864.44;2061529;28;19983;-47
2022/02/23 00:47:55;;;;;;;;;;;;;;;18.63;54.46;100874.34;2058896;28;19929;-48
2022/02/23 00:48:55;;;;;;;;;;;;;;;18.62;54.57;100864.44;2057624;28;19921;-49
2022/02/23 00:49:56;;;;;;;;;;;;;;;18.62;54.54;100863.56;2058580;28;20415;-48
2022/02/23 00:50:56;;;;;;;;;;;;;;;18.62;54.52;100863.56;2060241;28;19928;-47
2022/02/23 00:51:56;;;;;;;;;;;;;;;18.61;54.55;100870.03;2057806;28;19941;-47
2022/02/23 00:52:57;;;;;;;;;;;;;;;18.60;54.63;100871.03;2061640;28;19925;-47
2022/02/23 00:53:57;;;;;;;;;;;;;;;18.60;54.50;100873.75;2058408;28;19914;-46
2022/02/23 00:54:57;;;;;;;;;;;;;;;18.59;54.48;100874.72;2058406;28;19928;-46
2022/02/23 00:55:58;;;;;;;;;;;;;;;18.59;54.57;100880.19;2052047;28;20597;-45
2022/02/23 00:56:59;;;;;;;;;;;;;;;18.60;54.71;100871.03;2049768;28;20220;-46
2022/02/23 00:57:59;;;;;;;;;;;;;;;18.60;54.48;100871.03;2052012;28;19959;-47
2022/02/23 00:58:59;;;;;;;;;;;;;;;18.61;54.61;100879.06;2048864;28;19969;-47
2022/02/23 01:00:00;;;;;;;;;;;;;;;18.59;54.55;100870.16;2057647;28;19921;-46
2022/02/23 01:01:00;;;;;;;;;;;;;;;18.59;54.81;100874.72;2051468;28;19925;-48
2022/02/23 01:02:00;;;;;;;;;;;;;;;18.59;54.55;100874.72;2045781;28;19917;-46
2022/02/23 01:03:00;;;;;;;;;;;;;;;18.58;54.74;100878.47;2058822;28;19918;-45
2022/02/23 01:04:01;;;;;;;;;;;;;;;18.54;54.71;100876.97;2055698;28;19940;-45
2022/02/23 01:05:01;;;;;;;;;;;;;;;18.50;54.75;100876.38;2059677;28;20166;-46
2022/02/23 01:06:02;;;;;;;;;;;;;;;18.48;54.76;100872.06;2058982;28;20240;-45
2022/02/23 01:07:03;;;;;;;;;;;;;;;18.45;54.89;100866.81;2056727;28;19944;-45
2022/02/23 01:08:03;;;;;;;;;;;;;;;18.42;54.96;100874.28;2059414;28;19944;-45
2022/02/23 01:09:04;;;;;;;;;;;;;;;18.40;54.91;100869.97;2057501;28;19921;-45
2022/02/23 01:10:05;;;;;;;;;;;;;;;18.38;54.99;100863.75;2058301;28;19957;-45
2022/02/23 01:11:06;;;;;;;;;;;;;;;18.36;55.11;100863.88;2060970;28;19971;-45
2022/02/23 01:12:06;;;;;;;;;;;;;;;18.36;54.97;100869.31;2057020;28;19948;-45
2022/02/23 01:13:06;;;;;;;;;;;;;;;18.34;55.17;100865.84;2061880;28;19925;-44
2022/02/23 01:14:07;;;;;;;;;;;;;;;18.34;55.07;100865.84;2057681;28;19932;-45
2022/02/23 01:15:08;;;;;;;;;;;;;;;18.33;55.07;100858.66;2059053;28;19931;-46
2022/02/23 01:16:08;;;;;;;;;;;;;;;18.32;55.29;100862.38;2058296;28;19917;-44
2022/02/23 01:17:09;;;;;;;;;;;;;;;18.32;55.08;100862.38;2051654;28;19929;-45
2022/02/23 01:18:09;;;;;;;;;;;;;;;18.33;55.09;100863.25;2052737;28;19921;-45
2022/02/23 01:19:10;;;;;;;;;;;;;;;18.34;55.14;100868.56;2058074;28;20310;-45
2022/02/23 01:20:10;;;;;;;;;;;;;;;18.33;55.25;100864.13;2057920;28;20379;-45
2022/02/23 01:21:11;;;;;;;;;;;;;;;18.34;55.25;100868.56;2059230;28;19929;-45
2022/02/23 01:22:11;;;;;;;;;;;;;;;18.32;55.01;100867.84;2061114;28;19939;-46
2022/02/23 01:23:11;;;;;;;;;;;;;;;18.33;55.13;100869.59;2059424;28;19921;-45
2022/02/23 01:24:12;;;;;;;;;;;;;;;18.31;55.06;100871.56;2055686;28;20765;-47
2022/02/23 01:25:12;;;;;;;;;;;;;;;18.33;55.14;100871.44;2059685;28;20104;-45
2022/02/23 01:26:12;;;;;;;;;;;;;;;18.33;55.12;100863.25;2059412;28;19983;-46
2022/02/23 01:27:13;;;;;;;;;;;;;;;18.32;55.21;100867.84;2058971;28;19918;-47
2022/02/23 01:28:13;;;;;;;;;;;;;;;18.33;55.17;100869.59;2056804;28;20052;-46
2022/02/23 01:29:13;;;;;;;;;;;;;;;18.33;55.10;100866.00;2056543;28;19947;-47
2022/02/23 01:30:14;;;;;;;;;;;;;;;18.33;55.21;100864.13;2060361;28;20203;-46
2022/02/23 01:31:14;;;;;;;;;;;;;;;18.33;55.15;100863.25;2058505;28;20008;-45
2022/02/23 01:32:14;;;;;;;;;;;;;;;18.32;55.21;100862.38;2049103;28;19922;-46
2022/02/23 01:33:15;;;;;;;;;;;;;;;18.32;55.19;100862.38;2053424;28;19969;-46
2022/02/23 01:34:15;;;;;;;;;;;;;;;18.33;55.06;100864.13;2059278;28;20263;-47
2022/02/23 01:35:16;;;;;;;;;;;;;;;18.34;55.06;100859.53;2059491;28;20194;-47
2022/02/23 01:36:16;;;;;;;;;;;;;;;18.33;55.16;100858.66;2059031;28;19920;-46
2022/02/23 01:37:16;;;;;;;;;;;;;;;18.35;55.12;100862.16;2057423;28;20308;-45
2022/02/23 01:38:17;;;;;;;;;;;;;;;18.34;55.14;100854.94;2051352;28;19921;-46
2022/02/23 01:39:17;;;;;;;;;;;;;;;18.33;55.16;100849.63;2051593;28;20320;-47
2022/02/23 01:40:18;;;;;;;;;;;;;;;18.33;55.14;100853.22;2060069;28;20005;-47
2022/02/23 01:41:19;;;;;;;;;;;;;;;18.33;55.08;100850.47;2059065;28;19913;-46
2022/02/23 01:42:20;;;;;;;;;;;;;;;18.32;55.06;100851.47;2060134;28;19948;-46
2022/02/23 01:43:20;;;;;;;;;;;;;;;18.32;55.27;100851.47;2051023;28;19925;-46
2022/02/23 01:44:20;;;;;;;;;;;;;;;18.32;55.26;100851.47;2051319;28;20016;-46
2022/02/23 01:45:21;;;;;;;;;;;;;;;18.32;55.15;100851.47;2057420;28;20400;-47
2022/02/23 01:46:21;;;;;;;;;;;;;;;18.32;55.33;100850.59;2059793;28;19922;-45
2022/02/23 01:47:22;;;;;;;;;;;;;;;18.32;55.17;100851.47;2059280;28;19929;-51
2022/02/23 01:48:22;;;;;;;;;;;;;;;18.32;55.24;100842.41;2059618;28;20535;-46
2022/02/23 01:49:23;;;;;;;;;;;;;;;18.31;55.24;100844.28;2052918;28;19926;-46
2022/02/23 01:50:24;;;;;;;;;;;;;;;18.32;55.12;100846.00;2050075;28;19926;-46
2022/02/23 01:51:24;;;;;;;;;;;;;;;18.32;55.25;100846.00;2060858;28;21011;-46
2022/02/23 01:52:25;;;;;;;;;;;;;;;18.31;55.17;100838.81;2059882;28;19921;-45
2022/02/23 01:53:26;;;;;;;;;;;;;;;18.32;55.17;100835.09;2056987;28;20070;-45
2022/02/23 01:54:26;;;;;;;;;;;;;;;18.32;55.17;100835.09;2056809;28;20468;-46
2022/02/23 01:55:26;;;;;;;;;;;;;;;18.32;55.32;100835.09;2057829;28;20434;-46
2022/02/23 01:56:27;;;;;;;;;;;;;;;18.33;55.26;100830.50;2059765;28;19929;-45
2022/02/23 01:57:27;;;;;;;;;;;;;;;18.32;55.18;100835.09;2062213;28;19929;-46
2022/02/23 01:58:27;;;;;;;;;;;;;;;18.33;55.05;100828.66;2057104;28;19977;-47
2022/02/23 01:59:28;;;;;;;;;;;;;;;18.34;55.10;100834.97;2059876;28;20110;-46
2022/02/23 02:00:28;;;;;;;;;;;;;;;18.34;55.22;100832.22;2060023;28;19921;-45
2022/02/23 02:01:29;;;;;;;;;;;;;;;18.34;55.03;100830.38;2060919;28;19920;-46
2022/02/23 02:02:29;;;;;;;;;;;;;;;18.33;55.15;100831.38;2060792;28;20391;-46
2022/02/23 02:03:29;;;;;;;;;;;;;;;18.33;55.00;100834.09;2057181;28;20269;-45
2022/02/23 02:04:32;;;;;;;;;;;;;;;18.33;55.23;100825.91;2060046;28;20405;-46
2022/02/23 02:05:32;;;;;;;;;;;;;;;18.33;55.02;100825.06;2053858;28;19936;-46
2022/02/23 02:06:32;;;;;;;;;;;;;;;18.33;55.15;100819.59;2052880;28;19976;-47
2022/02/23 02:07:33;;;;;;;;;;;;;;;18.33;55.07;100820.47;2058312;28;19920;-46
2022/02/23 02:08:33;;;;;;;;;;;;;;;18.33;55.32;100825.91;2059300;28;20224;-47
2022/02/23 02:09:34;;;;;;;;;;;;;;;18.32;55.12;100826.88;2061678;28;19969;-45
2022/02/23 02:10:34;;;;;;;;;;;;;;;18.32;55.10;100826.03;2057615;28;19926;-47
2022/02/23 02:11:34;;;;;;;;;;;;;;;18.30;55.32;100826.19;2057691;28;20615;-45
2022/02/23 02:12:35;;;;;;;;;;;;;;;18.31;55.24;100832.50;2060141;28;20431;-49
2022/02/23 02:13:35;;;;;;;;;;;;;;;18.30;55.21;100834.38;2060520;28;19913;-45
2022/02/23 02:14:35;;;;;;;;;;;;;;;18.31;55.11;100829.75;2059695;28;20016;-46
2022/02/23 02:15:36;;;;;;;;;;;;;;;18.28;55.23;100827.31;2057072;28;19925;-45
2022/02/23 02:16:36;;;;;;;;;;;;;;;18.29;55.37;100827.16;2058364;28;19952;-45
2022/02/23 02:17:37;;;;;;;;;;;;;;;18.28;55.26;100828.16;2059023;28;19988;-46
2022/02/23 02:18:37;;;;;;;;;;;;;;;18.28;55.26;100833.63;2061208;28;19979;-45
2022/02/23 02:19:38;;;;;;;;;;;;;;;18.27;55.38;100822.81;2058867;28;19920;-46
2022/02/23 02:20:38;;;;;;;;;;;;;;;18.26;55.29;100832.00;2059997;28;19928;-46
2022/02/23 02:21:50;;;;;;;;;;;;;;;18.25;55.41;100825.69;2059331;28;19933;-46
2022/02/23 02:22:51;;;;;;;;;;;;;;;18.26;55.30;100824.69;2057002;28;19921;-45
2022/02/23 02:23:51;;;;;;;;;;;;;;;18.26;55.28;100821.97;2058141;28;20024;-47
2022/02/23 02:24:52;;;;;;;;;;;;;;;18.26;55.48;100819.22;2060210;28;19960;-46
2022/02/23 02:25:52;;;;;;;;;;;;;;;18.26;55.36;100816.50;2061467;28;19921;-46
2022/02/23 02:26:53;;;;;;;;;;;;;;;18.26;55.44;100830.16;2058532;28;20012;-45
2022/02/23 02:27:53;;;;;;;;;;;;;;;18.26;55.23;100824.69;2059823;28;19925;-45
2022/02/23 02:28:53;;;;;;;;;;;;;;;18.26;55.46;100819.22;2057483;28;19928;-46
2022/02/23 02:29:54;;;;;;;;;;;;;;;18.25;55.39;100817.50;2059094;28;19927;-46
2022/02/23 02:30:54;;;;;;;;;;;;;;;18.26;55.28;100813.78;2059132;28;19925;-45
2022/02/23 02:31:54;;;;;;;;;;;;;;;18.26;55.48;100813.78;2056614;28;19925;-45
2022/02/23 02:32:55;;;;;;;;;;;;;;;18.26;55.39;100813.78;2057977;28;20064;-46
2022/02/23 02:33:55;;;;;;;;;;;;;;;18.26;55.45;100813.78;2058829;28;19921;-47
2022/02/23 02:34:56;;;;;;;;;;;;;;;18.26;55.40;100816.50;2064815;28;19961;-47
2022/02/23 02:35:56;;;;;;;;;;;;;;;18.27;55.27;100812.75;2056841;28;20332;-45
2022/02/23 02:36:57;;;;;;;;;;;;;;;18.27;55.40;100814.63;2061174;28;19928;-45
2022/02/23 02:37:57;;;;;;;;;;;;;;;18.27;55.43;100815.50;2059164;28;19925;-47
2022/02/23 02:38:57;;;;;;;;;;;;;;;18.28;55.36;100822.69;2058818;28;19929;-45
2022/02/23 02:39:57;;;;;;;;;;;;;;;18.27;55.31;100804.56;2058220;28;19921;-45
2022/02/23 02:40:58;;;;;;;;;;;;;;;18.28;55.34;100805.47;2057228;28;19928;-45
2022/02/23 02:41:58;;;;;;;;;;;;;;;18.27;55.36;100810.03;2048068;28;19957;-47
2022/02/23 02:42:58;;;;;;;;;;;;;;;18.27;55.40;100810.03;2043477;28;20431;-46
2022/02/23 02:43:59;;;;;;;;;;;;;;;18.27;55.29;100815.50;2058133;28;19925;-47
2022/02/23 02:44:59;;;;;;;;;;;;;;;18.27;55.40;100815.50;2050697;28;19917;-49
2022/02/23 02:45:59;;;;;;;;;;;;;;;18.28;55.47;100806.31;2050453;28;19953;-46
2022/02/23 02:47:00;;;;;;;;;;;;;;;18.28;55.36;100805.47;2056029;28;19917;-46
2022/02/23 02:48:00;;;;;;;;;;;;;;;18.28;55.31;100813.66;2060267;28;20019;-46
2022/02/23 02:49:01;;;;;;;;;;;;;;;18.28;55.18;100806.31;2059228;28;20553;-46
2022/02/23 02:50:02;;;;;;;;;;;;;;;18.28;55.17;100803.59;2057623;28;19925;-46
2022/02/23 02:51:02;;;;;;;;;;;;;;;18.29;55.31;100802.59;2059132;28;20114;-46
2022/02/23 02:52:03;;;;;;;;;;;;;;;18.28;55.37;100806.31;2058890;28;19924;-46
2022/02/23 02:53:04;;;;;;;;;;;;;;;18.29;55.42;100807.19;2059714;28;19992;-46
2022/02/23 02:54:05;;;;;;;;;;;;;;;18.29;55.27;100807.19;2058992;28;19917;-45
2022/02/23 02:55:06;;;;;;;;;;;;;;;18.28;55.38;100803.59;2051323;28;20048;-46
2022/02/23 02:56:06;;;;;;;;;;;;;;;18.28;55.33;100803.59;2055755;28;19925;-48
2022/02/23 02:57:07;;;;;;;;;;;;;;;18.27;55.32;100804.56;2061397;28;19928;-46
2022/02/23 02:58:08;;;;;;;;;;;;;;;18.27;55.36;100799.13;2059193;28;19918;-48
2022/02/23 02:59:08;;;;;;;;;;;;;;;18.27;55.38;100801.84;2057064;28;20294;-46
2022/02/23 03:00:10;;;;;;;;;;;;;;;18.28;55.36;100805.47;2058542;28;20012;-46
2022/02/23 03:01:10;;;;;;;;;;;;;;;18.27;55.35;100803.72;2057737;28;19925;-46
2022/02/23 03:02:10;;;;;;;;;;;;;;;18.26;55.38;100799.25;2058335;28;19985;-46
2022/02/23 03:03:11;;;;;;;;;;;;;;;18.25;55.29;100801.13;2058285;28;20409;-46
2022/02/23 03:04:11;;;;;;;;;;;;;;;18.26;55.32;100802.84;2060447;28;19921;-46
2022/02/23 03:05:11;;;;;;;;;;;;;;;18.26;55.27;100797.41;2057849;28;20027;-46
2022/02/23 03:06:12;;;;;;;;;;;;;;;18.26;55.23;100797.41;2056341;28;19927;-47
2022/02/23 03:07:13;;;;;;;;;;;;;;;18.25;55.29;100806.59;2058937;28;19932;-47
2022/02/23 03:08:13;;;;;;;;;;;;;;;18.26;55.37;100800.13;2057799;28;20423;-46
2022/02/23 03:09:14;;;;;;;;;;;;;;;18.26;55.31;100802.84;2059344;28;19921;-47
2022/02/23 03:10:14;;;;;;;;;;;;;;;18.25;55.39;100801.13;2058389;28;20748;-47
2022/02/23 03:11:14;;;;;;;;;;;;;;;18.25;55.34;100795.69;2058532;28;20005;-46
2022/02/23 03:12:15;;;;;;;;;;;;;;;18.25;55.41;100798.41;2058653;28;20000;-46
2022/02/23 03:13:15;;;;;;;;;;;;;;;18.24;55.23;100799.38;2056752;28;19925;-49
2022/02/23 03:14:15;;;;;;;;;;;;;;;18.23;55.27;100797.66;2058968;28;19914;-49
2022/02/23 03:15:16;;;;;;;;;;;;;;;18.24;55.29;100804.84;2058502;28;19928;-46
2022/02/23 03:16:16;;;;;;;;;;;;;;;18.25;55.40;100811.16;2058722;28;20017;-48
2022/02/23 03:17:16;;;;;;;;;;;;;;;18.24;55.47;100798.53;2059044;28;19979;-46
2022/02/23 03:18:17;;;;;;;;;;;;;;;18.24;55.41;100793.91;2057269;28;19924;-46
2022/02/23 03:19:17;;;;;;;;;;;;;;;18.23;55.49;100794.94;2058348;28;19914;-46
2022/02/23 03:20:17;;;;;;;;;;;;;;;18.25;55.38;100794.78;2058747;28;20324;-47
2022/02/23 03:21:18;;;;;;;;;;;;;;;18.23;55.56;100796.75;2059593;28;19922;-46
2022/02/23 03:22:18;;;;;;;;;;;;;;;18.22;55.46;100795.91;2064938;28;19921;-46
2022/02/23 03:23:18;;;;;;;;;;;;;;;18.23;55.56;100785.84;2050406;28;20332;-46
2022/02/23 03:24:19;;;;;;;;;;;;;;;18.22;55.29;100793.19;2049852;28;19925;-47
2022/02/23 03:25:19;;;;;;;;;;;;;;;18.23;55.54;100792.19;2059282;28;19928;-46
2022/02/23 03:26:19;;;;;;;;;;;;;;;18.23;55.33;100792.19;2056250;28;19925;-46
2022/02/23 03:27:20;;;;;;;;;;;;;;;18.23;55.32;100792.19;2056222;28;19952;-47
2022/02/23 03:28:20;;;;;;;;;;;;;;;18.23;55.48;100792.19;2058799;28;20078;-46
2022/02/23 03:29:21;;;;;;;;;;;;;;;18.23;55.51;100789.47;2059234;28;19956;-46
2022/02/23 03:30:21;;;;;;;;;;;;;;;18.23;55.52;100794.94;2055896;28;19921;-47
2022/02/23 03:31:21;;;;;;;;;;;;;;;18.23;55.43;100797.66;2057233;28;19930;-47
2022/02/23 03:32:21;;;;;;;;;;;;;;;18.24;55.49;100804.84;2061159;28;19921;-46
2022/02/23 03:33:22;;;;;;;;;;;;;;;18.24;55.49;100804.84;2058550;28;20405;-47
2022/02/23 03:34:22;;;;;;;;;;;;;;;18.25;55.32;100800.25;2059892;28;19925;-46
2022/02/23 03:35:27;;;;;;;;;;;;;;;18.25;55.46;100801.13;2058639;28;19944;-46
2022/02/23 03:36:27;;;;;;;;;;;;;;;18.25;55.47;100792.06;2057909;28;19921;-49
2022/02/23 03:37:28;;;;;;;;;;;;;;;18.24;55.38;100804.84;2059149;28;19940;-47
2022/02/23 03:38:28;;;;;;;;;;;;;;;18.27;55.27;100790.06;2059685;28;19981;-47
2022/02/23 03:39:28;;;;;;;;;;;;;;;18.26;55.42;100791.94;2057737;28;19922;-46
2022/02/23 03:40:29;;;;;;;;;;;;;;;18.27;55.32;100785.47;2057553;28;19925;-48
2022/02/23 03:41:29;;;;;;;;;;;;;;;18.27;55.30;100792.78;2059105;28;20675;-46
2022/02/23 03:42:30;;;;;;;;;;;;;;;18.27;55.35;100787.34;2058441;28;19921;-47
2022/02/23 03:43:31;;;;;;;;;;;;;;;18.26;55.23;100786.47;2058877;28;19931;-47
2022/02/23 03:44:31;;;;;;;;;;;;;;;18.26;55.47;100793.81;2057590;28;19932;-46
2022/02/23 03:45:32;;;;;;;;;;;;;;;18.27;55.30;100790.06;2060694;28;19921;-48
2022/02/23 03:46:33;;;;;;;;;;;;;;;18.25;55.53;100784.75;2059295;28;20410;-49
2022/02/23 03:47:33;;;;;;;;;;;;;;;18.25;55.36;100784.75;2058931;28;21072;-50
2022/02/23 03:48:33;;;;;;;;;;;;;;;18.26;55.42;100782.88;2061325;28;19922;-47
2022/02/23 03:49:34;;;;;;;;;;;;;;;18.25;55.28;100787.50;2058528;28;19928;-49
2022/02/23 03:50:34;;;;;;;;;;;;;;;18.27;55.32;100787.34;2048372;28;20703;-46
2022/02/23 03:51:34;;;;;;;;;;;;;;;18.25;55.42;100790.22;2051573;28;19921;-46
2022/02/23 03:52:35;;;;;;;;;;;;;;;18.24;55.34;100783.00;2059668;28;19921;-46
2022/02/23 03:53:35;;;;;;;;;;;;;;;18.25;55.48;100790.22;2054443;28;19922;-46
2022/02/23 03:54:36;;;;;;;;;;;;;;;18.25;55.51;100790.22;2058543;28;19921;-46
2022/02/23 03:55:36;;;;;;;;;;;;;;;18.26;55.54;100791.94;2056270;28;19976;-46
2022/02/23 03:56:39;;;;;;;;;;;;;;;18.27;55.35;100784.59;2057175;28;20005;-45
2022/02/23 03:57:40;;;;;;;;;;;;;;;18.26;55.37;100791.06;2056161;28;20055;-45
2022/02/23 03:58:40;;;;;;;;;;;;;;;18.25;55.32;100790.22;2056575;28;19950;-46
2022/02/23 03:59:40;;;;;;;;;;;;;;;18.25;55.46;100784.75;2057862;28;19926;-47
2022/02/23 04:00:41;;;;;;;;;;;;;;;18.26;55.41;100791.06;2058145;28;20539;-46
2022/02/23 04:01:46;;;;;;;;;;;;;;;18.26;55.49;100791.94;2059156;28;20963;-47
2022/02/23 04:02:46;;;;;;;;;;;;;;;18.28;55.45;100791.81;2057174;28;19966;-47
2022/02/23 04:03:46;;;;;;;;;;;;;;;18.28;55.34;100789.09;2060382;28;19921;-47
2022/02/23 04:04:47;;;;;;;;;;;;;;;18.27;55.39;100792.78;2056051;28;19921;-46
2022/02/23 04:05:47;;;;;;;;;;;;;;;18.27;55.36;100788.19;2059382;28;19926;-49
2022/02/23 04:06:48;;;;;;;;;;;;;;;18.27;55.38;100799.13;2057191;28;19955;-48
2022/02/23 04:07:48;;;;;;;;;;;;;;;18.27;55.30;100787.34;2059398;28;20246;-47
2022/02/23 04:08:49;;;;;;;;;;;;;;;18.28;55.33;100786.38;2057478;28;20004;-46
2022/02/23 04:09:49;;;;;;;;;;;;;;;18.26;55.39;100786.47;2056888;28;19928;-46
2022/02/23 04:10:49;;;;;;;;;;;;;;;18.27;55.28;100777.28;2058802;28;20237;-47
2022/02/23 04:11:50;;;;;;;;;;;;;;;18.26;55.31;100781.03;2057893;28;19937;-47
2022/02/23 04:12:50;;;;;;;;;;;;;;;18.27;55.32;100782.75;2056940;28;20112;-47
2022/02/23 04:13:50;;;;;;;;;;;;;;;18.26;55.38;100778.28;2058575;28;19926;-46
2022/02/23 04:14:51;;;;;;;;;;;;;;;18.27;55.22;100782.75;2058641;28;19922;-46
2022/02/23 04:15:51;;;;;;;;;;;;;;;18.26;55.46;100781.03;2061897;28;19996;-47
2022/02/23 04:16:52;;;;;;;;;;;;;;;18.24;55.46;100780.28;2059930;28;19972;-49
2022/02/23 04:17:52;;;;;;;;;;;;;;;18.25;55.48;100779.31;2059766;28;19987;-48
2022/02/23 04:18:53;;;;;;;;;;;;;;;18.24;55.37;100780.28;2058235;28;19922;-46
2022/02/23 04:19:53;;;;;;;;;;;;;;;18.24;55.55;100777.53;2059369;28;19914;-47
2022/02/23 04:20:53;;;;;;;;;;;;;;;18.23;55.56;100773.09;2060722;28;19914;-47
2022/02/23 04:21:54;;;;;;;;;;;;;;;18.23;55.49;100775.81;2059672;28;20406;-47
2022/02/23 04:22:54;;;;;;;;;;;;;;;18.23;55.45;100770.38;2060488;28;19976;-48
2022/02/23 04:23:54;;;;;;;;;;;;;;;18.23;55.49;100770.38;2060906;28;19914;-48
2022/02/23 04:24:55;;;;;;;;;;;;;;;18.23;55.50;100769.47;2059121;28;20456;-47
2022/02/23 04:25:55;;;;;;;;;;;;;;;18.21;55.33;100767.75;2064700;28;19945;-47
2022/02/23 04:26:55;;;;;;;;;;;;;;;18.22;55.42;100774.06;2060082;28;19913;-46
2022/02/23 04:27:56;;;;;;;;;;;;;;;18.22;55.42;100765.88;2058721;28;19922;-47
2022/02/23 04:28:56;;;;;;;;;;;;;;;18.23;55.57;100772.19;2062186;28;20403;-47
2022/02/23 04:29:56;;;;;;;;;;;;;;;18.22;55.57;100771.34;2059172;28;19924;-47
2022/02/23 04:30:57;;;;;;;;;;;;;;;18.21;55.61;100775.09;2052057;28;20295;-47
2022/02/23 04:31:58;;;;;;;;;;;;;;;18.20;55.47;100771.50;2053284;28;19921;-45
2022/02/23 04:32:58;;;;;;;;;;;;;;;18.20;55.52;100767.88;2057531;28;19921;-48
2022/02/23 04:33:59;;;;;;;;;;;;;;;18.21;55.35;100770.47;2060524;28;20193;-46
2022/02/23 04:34:59;;;;;;;;;;;;;;;18.22;55.48;100768.63;2059876;28;20792;-46
2022/02/23 04:35:59;;;;;;;;;;;;;;;18.23;55.48;100769.47;2051629;28;20584;-46
2022/02/23 04:37:00;;;;;;;;;;;;;;;18.23;55.62;100764.91;2043739;28;19922;-47
2022/02/23 04:38:00;;;;;;;;;;;;;;;18.23;55.57;100764.03;2047947;28;19922;-47
2022/02/23 04:39:00;;;;;;;;;;;;;;;18.24;55.38;100766.63;2050565;28;20620;-49
2022/02/23 04:40:01;;;;;;;;;;;;;;;18.24;55.42;100765.78;2058973;28;19922;-46
2022/02/23 04:41:01;;;;;;;;;;;;;;;18.24;55.33;100766.63;2059368;28;19967;-47
2022/02/23 04:42:01;;;;;;;;;;;;;;;18.25;55.49;100770.22;2059796;28;19932;-47
2022/02/23 04:43:02;;;;;;;;;;;;;;;18.25;55.40;100771.13;2062282;28;19928;-48
2022/02/23 04:44:03;;;;;;;;;;;;;;;18.25;55.36;100768.38;2057752;28;19927;-47
2022/02/23 04:45:03;;;;;;;;;;;;;;;18.25;55.32;100770.22;2060324;28;19965;-48
2022/02/23 04:46:06;;;;;;;;;;;;;;;18.25;55.20;100762.94;2061232;28;20482;-47
2022/02/23 04:47:06;;;;;;;;;;;;;;;18.26;55.45;100763.78;2061700;28;20391;-48
2022/02/23 04:48:06;;;;;;;;;;;;;;;18.26;55.24;100761.91;2053213;28;19922;-49
2022/02/23 04:49:07;;;;;;;;;;;;;;;18.27;55.27;100769.09;2058755;28;19928;-47
2022/02/23 04:50:07;;;;;;;;;;;;;;;18.26;55.49;100766.50;2059363;28;19932;-47
2022/02/23 04:51:08;;;;;;;;;;;;;;;18.25;55.47;100760.19;2058171;28;19936;-48
2022/02/23 04:52:08;;;;;;;;;;;;;;;18.25;55.31;100762.94;2059115;28;19921;-46
2022/02/23 04:53:08;;;;;;;;;;;;;;;18.25;55.39;100762.94;2059982;28;20354;-47
2022/02/23 04:54:09;;;;;;;;;;;;;;;18.25;55.41;100765.66;2060531;28;20012;-47
2022/02/23 04:55:09;;;;;;;;;;;;;;;18.25;55.41;100762.94;2061890;28;19928;-47
2022/02/23 04:56:09;;;;;;;;;;;;;;;18.26;55.44;100761.91;2055389;28;19926;-46
2022/02/23 04:57:10;;;;;;;;;;;;;;;18.26;55.48;100764.66;2058809;28;20222;-47
2022/02/23 04:58:10;;;;;;;;;;;;;;;18.25;55.43;100762.94;2062465;28;19936;-46
2022/02/23 04:59:10;;;;;;;;;;;;;;;18.26;55.27;100767.38;2057214;28;20312;-47
2022/02/23 05:00:11;;;;;;;;;;;;;;;18.26;55.45;100770.09;2059346;28;19921;-47
2022/02/23 05:01:11;;;;;;;;;;;;;;;18.25;55.37;100760.19;2052970;28;21001;-47
2022/02/23 05:02:12;;;;;;;;;;;;;;;18.26;55.37;100764.66;2060802;28;20550;-50
2022/02/23 05:03:12;;;;;;;;;;;;;;;18.26;55.25;100770.09;2058157;28;19921;-47
2022/02/23 05:04:12;;;;;;;;;;;;;;;18.26;55.42;100770.09;2061002;28;19921;-49
2022/02/23 05:05:13;;;;;;;;;;;;;;;18.26;55.28;100764.66;2063758;28;20515;-46
2022/02/23 05:06:13;;;;;;;;;;;;;;;18.27;55.41;100770.97;2057739;28;20378;-47
2022/02/23 05:07:18;;;;;;;;;;;;;;;18.27;55.15;100765.50;2056463;28;19921;-50
2022/02/23 05:08:19;;;;;;;;;;;;;;;18.27;55.28;100769.09;2050802;28;19976;-50
2022/02/23 05:09:19;;;;;;;;;;;;;;;18.27;55.31;100771.81;2060522;28;20415;-47
2022/02/23 05:10:19;;;;;;;;;;;;;;;18.26;55.21;100770.09;2050441;28;19977;-47